createdAt,value
2022-10-22T00:00:50.680Z,101010.38
2022-10-22T00:04:14.204Z,101014.69
2022-10-22T00:07:36.414Z,101006.97
2022-10-22T00:10:58.860Z,100989.06
2022-10-22T00:14:20.954Z,101007.16
2022-10-22T00:17:43.044Z,101002.09
2022-10-22T00:21:07.411Z,100995.22
2022-10-22T00:24:29.220Z,100997.03
2022-10-22T00:27:51.202Z,100990.16
2022-10-22T00:31:13.212Z,100984.19
2022-10-22T00:34:35.313Z,100984.19
2022-10-22T00:37:58.824Z,100978.19
2022-10-22T00:41:20.638Z,100973.06
2022-10-22T00:45:18.477Z,100968.91
2022-10-22T00:48:40.334Z,100971.75
2022-10-22T00:52:02.192Z,100932.44
2022-10-22T00:55:26.564Z,100974.56
2022-10-22T00:58:52.405Z,100948.16
2022-10-22T01:02:14.483Z,100967.94
2022-10-22T01:05:42.522Z,100967.19
2022-10-22T01:09:14.397Z,100957.78
2022-10-22T01:12:49.091Z,100953.59
2022-10-22T01:16:16.268Z,100950.31
2022-10-22T01:19:51.508Z,100956.34
2022-10-22T01:23:24.511Z,100953.03
2022-10-22T01:27:01.616Z,100963.44
2022-10-22T01:30:26.049Z,100960.94
2022-10-22T01:33:50.367Z,100959.25
2022-10-22T01:37:15.416Z,100928.53
2022-10-22T01:40:38.762Z,100955.06
2022-10-22T01:44:00.340Z,100955.16
2022-10-22T01:47:38.004Z,100946.66
2022-10-22T01:51:14.635Z,100946.59
2022-10-22T01:54:45.686Z,100945.00
2022-10-22T01:58:20.611Z,100951.03
2022-10-22T02:01:50.002Z,100940.78
2022-10-22T02:05:18.487Z,100946.88
2022-10-22T02:08:40.905Z,100905.03
2022-10-22T02:15:34.666Z,100934.19
2022-10-22T02:18:59.753Z,100933.47
2022-10-22T02:22:23.308Z,100926.59
2022-10-22T02:25:52.784Z,100919.00
2022-10-22T02:29:20.138Z,100927.63
2022-10-22T02:32:48.882Z,100925.91
2022-10-22T02:36:11.837Z,100912.28
2022-10-22T02:39:37.328Z,100927.72
2022-10-22T02:42:59.252Z,100930.38
2022-10-22T02:46:21.962Z,100932.19
2022-10-22T02:49:43.732Z,100924.53
2022-10-22T02:53:05.714Z,100906.59
2022-10-22T02:56:28.945Z,100932.44
2022-10-22T02:59:51.130Z,100924.72
2022-10-22T03:03:13.064Z,100924.75
2022-10-22T03:06:35.003Z,100922.25
2022-10-22T03:09:57.035Z,100927.44
2022-10-22T03:13:20.234Z,100924.06
2022-10-22T03:16:42.307Z,100914.63
2022-10-22T03:20:04.296Z,100920.59
2022-10-22T03:23:26.965Z,100912.03
2022-10-22T03:26:50.526Z,100919.81
2022-10-22T03:30:14.692Z,100908.63
2022-10-22T03:33:36.220Z,100903.47
2022-10-22T03:36:59.952Z,100907.81
2022-10-22T03:40:22.358Z,100902.66
2022-10-22T03:43:49.634Z,100901.81
2022-10-22T03:47:12.707Z,100901.00
2022-10-22T03:50:34.276Z,100882.22
2022-10-22T03:53:56.646Z,100894.25
2022-10-22T03:57:18.474Z,100895.97
2022-10-22T04:00:40.283Z,100903.69
2022-10-22T04:04:03.494Z,100889.13
2022-10-22T04:07:25.653Z,100894.31
2022-10-22T04:10:52.606Z,100899.50
2022-10-22T04:14:14.292Z,100892.66
2022-10-22T04:17:36.982Z,100885.81
2022-10-22T04:21:00.305Z,100884.09
2022-10-22T04:24:22.359Z,100879.00
2022-10-22T04:27:44.148Z,100875.59
2022-10-22T04:31:10.543Z,100887.63
2022-10-22T04:34:32.688Z,100885.88
2022-10-22T04:37:56.624Z,100881.59
2022-10-22T04:41:20.795Z,100871.31
2022-10-22T04:44:42.290Z,100861.91
2022-10-22T04:48:04.350Z,100885.09
2022-10-22T04:51:27.982Z,100888.50
2022-10-22T04:54:51.072Z,100882.47
2022-10-22T04:58:12.778Z,100886.81
2022-10-22T05:01:39.953Z,100887.66
2022-10-22T05:05:05.351Z,100882.53
2022-10-22T05:08:27.187Z,100843.19
2022-10-22T05:11:53.002Z,100879.13
2022-10-22T05:15:14.872Z,100881.72
2022-10-22T05:18:37.916Z,100885.16
2022-10-22T05:22:01.772Z,100860.28
2022-10-22T05:25:23.764Z,100872.25
2022-10-22T05:28:47.269Z,100881.72
2022-10-22T05:32:09.353Z,100871.38
2022-10-22T05:35:32.040Z,100875.69
2022-10-22T05:38:53.581Z,100871.38
2022-10-22T05:42:15.476Z,100867.97
2022-10-22T05:45:39.715Z,100865.34
2022-10-22T05:49:02.924Z,100843.91
2022-10-22T05:52:25.071Z,100861.81
2022-10-22T05:55:47.375Z,100859.22
2022-10-22T05:59:08.948Z,100842.94
2022-10-22T06:02:32.314Z,100853.16
2022-10-22T06:05:54.337Z,100847.09
2022-10-22T06:09:19.274Z,100811.97
2022-10-22T06:12:40.981Z,100857.38
2022-10-22T06:16:03.232Z,100847.03
2022-10-22T06:19:27.233Z,100847.00
2022-10-22T06:22:49.477Z,100842.69
2022-10-22T06:26:12.202Z,100854.63
2022-10-22T06:29:34.431Z,100840.00
2022-10-22T06:32:57.235Z,100847.66
2022-10-22T06:36:21.979Z,100840.75
2022-10-22T06:39:43.961Z,100850.19
2022-10-22T06:43:06.254Z,100850.97
2022-10-22T06:46:28.224Z,100842.28
2022-10-22T06:49:50.935Z,100826.81
2022-10-22T06:53:13.954Z,100839.47
2022-10-22T06:56:36.220Z,100833.31
2022-10-22T06:59:58.158Z,100830.59
2022-10-22T07:03:20.503Z,100840.72
2022-10-22T07:06:42.332Z,100835.41
2022-10-22T07:10:06.050Z,100840.38
2022-10-22T07:13:28.030Z,100841.06
2022-10-22T07:16:50.226Z,100839.13
2022-10-22T07:20:13.047Z,100802.09
2022-10-22T07:23:35.645Z,100836.16
2022-10-22T07:26:59.097Z,100823.91
2022-10-22T07:30:21.097Z,100834.81
2022-10-22T07:33:43.087Z,100816.56
2022-10-22T07:37:05.338Z,100836.94
2022-10-22T07:40:27.359Z,100839.34
2022-10-22T07:43:50.352Z,100843.31
2022-10-22T07:47:12.496Z,100836.13
2022-10-22T07:50:34.574Z,100828.13
2022-10-22T07:53:56.316Z,100809.94
2022-10-22T07:57:18.269Z,100826.69
2022-10-22T08:00:41.602Z,100829.91
2022-10-22T08:04:03.777Z,100806.47
2022-10-22T08:10:52.800Z,100807.47
2022-10-22T08:14:14.720Z,100804.59
2022-10-22T08:17:38.196Z,100800.06
2022-10-22T08:21:00.278Z,100794.56
2022-10-22T08:24:22.405Z,100801.28
2022-10-22T08:27:44.692Z,100779.78
2022-10-22T08:31:07.657Z,100796.53
2022-10-22T08:34:31.334Z,100792.03
2022-10-22T08:37:53.347Z,100798.69
2022-10-22T08:41:18.301Z,100795.06
2022-10-22T08:44:57.504Z,100766.53
2022-10-22T08:48:37.492Z,100776.44
2022-10-22T08:52:01.817Z,100765.84
2022-10-22T08:55:25.833Z,100773.38
2022-10-22T08:58:55.109Z,100769.81
2022-10-22T09:02:31.488Z,100759.25
2022-10-22T09:06:00.289Z,100729.25
2022-10-22T09:09:29.028Z,100758.75
2022-10-22T09:12:51.335Z,100726.16
2022-10-22T09:16:19.257Z,100742.88
2022-10-22T09:19:50.368Z,100735.81
2022-10-22T09:23:25.882Z,100740.78
2022-10-22T09:26:49.461Z,100734.56
2022-10-22T09:30:17.529Z,100722.28
2022-10-22T09:33:40.835Z,100730.53
2022-10-22T09:37:03.988Z,100720.84
2022-10-22T09:40:26.008Z,100712.09
2022-10-22T09:43:50.445Z,100711.84
2022-10-22T09:47:42.855Z,100711.56
2022-10-22T09:51:19.569Z,100707.88
2022-10-22T09:54:43.509Z,100702.34
2022-10-22T09:58:06.206Z,100697.78
2022-10-22T10:01:32.820Z,100690.03
2022-10-22T10:04:56.461Z,100695.19
2022-10-22T10:08:19.584Z,100693.28
2022-10-22T10:11:46.915Z,100699.22
2022-10-22T10:15:18.922Z,100695.53
2022-10-22T10:18:55.366Z,100690.06
2022-10-22T10:22:31.763Z,100687.34
2022-10-22T10:25:58.979Z,100680.31
2022-10-22T10:29:34.999Z,100673.22
2022-10-22T10:33:12.617Z,100668.06
2022-10-22T10:36:44.968Z,100663.47
2022-10-22T10:44:54.512Z,100646.28
2022-10-22T10:48:47.954Z,100661.34
2022-10-22T10:52:20.453Z,100656.69
2022-10-22T10:55:54.875Z,100660.84
2022-10-22T10:59:26.051Z,100644.34
2022-10-22T11:03:18.516Z,100645.16
2022-10-22T11:06:41.341Z,100634.84
2022-10-22T11:10:15.296Z,100632.34
2022-10-22T11:13:42.346Z,100630.63
2022-10-22T11:17:07.653Z,100620.28
2022-10-22T11:20:36.024Z,100623.72
2022-10-22T11:24:09.663Z,100618.41
2022-10-22T11:27:38.853Z,100617.47
2022-10-22T11:31:04.383Z,100587.59
2022-10-22T11:34:33.809Z,100608.75
2022-10-22T11:37:58.003Z,100606.91
2022-10-22T11:41:24.610Z,100602.50
2022-10-22T11:45:01.088Z,100596.44
2022-10-22T11:48:29.415Z,100570.97
2022-10-22T11:51:52.673Z,100579.97
2022-10-22T11:55:46.127Z,100583.31
2022-10-22T11:59:39.262Z,100566.22
2022-10-22T12:03:06.322Z,100569.41
2022-10-22T12:06:29.200Z,100570.22
2022-10-22T12:13:23.175Z,100559.78
2022-10-22T12:17:02.232Z,100531.78
2022-10-22T12:20:26.735Z,100546.88
2022-10-22T12:23:49.716Z,100535.50
2022-10-22T12:27:22.443Z,100539.03
2022-10-22T12:30:45.042Z,100533.81
2022-10-22T12:34:07.181Z,100522.66
2022-10-22T12:37:31.719Z,100527.63
2022-10-22T12:40:56.670Z,100528.47
2022-10-22T12:44:19.935Z,100507.91
2022-10-22T12:47:46.382Z,100510.34
2022-10-22T12:51:10.211Z,100505.31
2022-10-22T12:54:35.310Z,100518.03
2022-10-22T12:57:57.241Z,100495.75
2022-10-22T13:01:19.989Z,100505.00
2022-10-22T13:04:41.884Z,100499.84
2022-10-22T13:08:06.016Z,100499.84
2022-10-22T13:11:35.474Z,100486.16
2022-10-22T13:14:57.080Z,100482.84
2022-10-22T13:18:21.158Z,100487.91
2022-10-22T13:21:49.884Z,100478.47
2022-10-22T13:25:24.085Z,100465.69
2022-10-22T13:28:54.708Z,100478.63
2022-10-22T13:32:29.109Z,100476.25
2022-10-22T13:35:51.141Z,100467.88
2022-10-22T13:39:18.253Z,100477.38
2022-10-22T13:42:40.813Z,100469.69
2022-10-22T13:46:04.412Z,100461.09
2022-10-22T13:49:26.166Z,100428.19
2022-10-22T13:52:51.174Z,100454.69
2022-10-22T13:56:16.344Z,100449.84
2022-10-22T13:59:38.166Z,100449.03
2022-10-22T14:03:01.794Z,100437.97
2022-10-22T14:06:28.656Z,100431.38
2022-10-22T14:09:51.436Z,100435.88
2022-10-22T14:13:14.397Z,100434.53
2022-10-22T14:16:37.138Z,100436.41
2022-10-22T14:20:02.252Z,100434.97
2022-10-22T14:23:27.802Z,100429.31
2022-10-22T14:26:50.625Z,100429.53
2022-10-22T14:30:16.901Z,100430.63
2022-10-22T14:33:41.048Z,100421.63
2022-10-22T14:37:05.235Z,100424.44
2022-10-22T14:40:28.907Z,100429.03
2022-10-22T14:43:52.695Z,100418.53
2022-10-22T14:47:15.649Z,100441.88
2022-10-22T14:50:38.204Z,100437.00
2022-10-22T14:54:02.598Z,100423.13
2022-10-22T14:57:25.249Z,100436.22
2022-10-22T15:00:48.139Z,100410.31
2022-10-22T15:04:10.754Z,100426.66
2022-10-22T15:07:33.511Z,100439.00
2022-10-22T15:11:06.507Z,100434.19
2022-10-22T15:14:29.773Z,100438.06
2022-10-22T15:17:52.626Z,100432.38
2022-10-22T15:21:17.796Z,100436.91
2022-10-22T15:24:41.208Z,100437.22
2022-10-22T15:28:09.847Z,100438.34
2022-10-22T15:31:48.800Z,100437.69
2022-10-22T15:35:11.803Z,100438.81
2022-10-22T15:38:34.558Z,100432.22
2022-10-22T15:41:57.805Z,100430.84
2022-10-22T15:45:24.461Z,100438.72
2022-10-22T15:48:50.700Z,100436.31
2022-10-22T15:52:13.354Z,100432.25
2022-10-22T15:55:36.512Z,100432.41
2022-10-22T15:59:01.728Z,100423.22
2022-10-22T16:02:26.936Z,100423.31
2022-10-22T16:05:54.812Z,100416.63
2022-10-22T16:09:20.004Z,100405.03
2022-10-22T16:12:44.030Z,100420.50
2022-10-22T16:16:08.820Z,100391.72
2022-10-22T16:19:33.819Z,100415.66
2022-10-22T16:22:56.986Z,100387.00
2022-10-22T16:26:21.821Z,100413.38
2022-10-22T16:29:45.669Z,100407.63
2022-10-22T16:33:10.263Z,100410.25
2022-10-22T16:36:37.009Z,100410.41
2022-10-22T16:40:03.150Z,100406.25
2022-10-22T16:43:31.017Z,100415.88
2022-10-22T16:46:55.416Z,100414.28
2022-10-22T16:50:18.988Z,100405.78
2022-10-22T16:53:44.405Z,100398.16
2022-10-22T16:57:07.569Z,100404.34
2022-10-22T17:00:30.220Z,100406.06
2022-10-22T17:03:55.020Z,100403.56
2022-10-22T17:07:18.804Z,100400.22
2022-10-22T17:10:43.804Z,100404.50
2022-10-22T17:14:07.300Z,100405.44
2022-10-22T17:17:30.748Z,100376.53
2022-10-22T17:20:56.572Z,100399.53
2022-10-22T17:24:20.841Z,100398.69
2022-10-22T17:27:46.487Z,100395.31
2022-10-22T17:31:13.029Z,100391.13
2022-10-22T17:34:37.011Z,100387.84
2022-10-22T17:38:00.846Z,100391.34
2022-10-22T17:41:26.827Z,100391.50
2022-10-22T17:44:51.319Z,100364.31
2022-10-22T17:48:14.691Z,100379.72
2022-10-22T17:51:37.447Z,100361.09
2022-10-22T17:55:00.610Z,100376.53
2022-10-22T17:58:23.465Z,100367.31
2022-10-22T18:01:49.192Z,100359.66
2022-10-22T18:05:13.683Z,100346.97
2022-10-22T18:08:36.864Z,100348.75
2022-10-22T18:12:00.012Z,100357.31
2022-10-22T18:15:22.993Z,100355.66
2022-10-22T18:18:50.039Z,100347.19
2022-10-22T18:22:13.290Z,100347.31
2022-10-22T18:25:41.167Z,100338.84
2022-10-22T18:29:04.024Z,100326.13
2022-10-22T18:32:27.298Z,100344.94
2022-10-22T18:35:52.706Z,100330.47
2022-10-22T18:39:17.202Z,100345.06
2022-10-22T18:42:41.705Z,100333.09
2022-10-22T18:46:09.673Z,100313.53
2022-10-22T18:49:32.632Z,100316.88
2022-10-22T18:52:57.228Z,100308.44
2022-10-22T18:56:21.214Z,100317.78
2022-10-22T18:59:45.210Z,100312.63
2022-10-22T19:03:10.003Z,100306.63
2022-10-22T19:06:37.148Z,100293.91
2022-10-22T19:10:04.529Z,100301.47
2022-10-22T19:13:29.640Z,100297.19
2022-10-22T19:16:53.208Z,100287.88
2022-10-22T19:20:24.872Z,100285.31
2022-10-22T19:23:49.566Z,100258.19
2022-10-22T19:27:14.265Z,100287.81
2022-10-22T19:30:37.889Z,100299.75
2022-10-22T19:34:03.062Z,100292.84
2022-10-22T19:37:26.525Z,100285.06
2022-10-22T19:40:52.046Z,100278.22
2022-10-22T19:44:16.741Z,100277.31
2022-10-22T19:47:40.213Z,100296.09
2022-10-22T19:51:08.809Z,100266.25
2022-10-22T19:54:32.074Z,100285.78
2022-10-22T19:57:54.827Z,100284.91
2022-10-22T20:01:20.538Z,100286.59
2022-10-22T20:04:49.095Z,100275.56
2022-10-22T20:08:13.535Z,100289.25
2022-10-22T20:11:36.907Z,100288.47
2022-10-22T20:15:02.627Z,100292.91
2022-10-22T20:18:27.131Z,100286.16
2022-10-22T20:21:51.163Z,100270.84
2022-10-22T20:25:15.303Z,100274.25
2022-10-22T20:28:41.052Z,100276.06
2022-10-22T20:32:05.495Z,100267.53
2022-10-22T20:35:33.495Z,100266.72
2022-10-22T20:39:02.362Z,100256.56
2022-10-22T20:42:25.871Z,100259.16
2022-10-22T20:45:49.840Z,100252.41
2022-10-22T20:49:17.207Z,100258.41
2022-10-22T20:52:41.903Z,100260.19
2022-10-22T20:56:06.723Z,100258.59
2022-10-22T20:59:33.460Z,100257.72
2022-10-22T21:02:58.936Z,100250.91
2022-10-22T21:06:23.883Z,100249.25
2022-10-22T21:09:48.936Z,100242.34
2022-10-22T21:13:12.566Z,100230.47
2022-10-22T21:16:37.927Z,100214.31
2022-10-22T21:20:01.067Z,100241.56
2022-10-22T21:23:24.425Z,100241.69
2022-10-22T21:26:49.520Z,100222.06
2022-10-22T21:30:14.546Z,100220.31
2022-10-22T21:33:39.125Z,100215.22
2022-10-22T21:37:03.019Z,100228.06
2022-10-22T21:40:28.633Z,100216.91
2022-10-22T21:43:53.945Z,100206.69
2022-10-22T21:47:16.902Z,100214.31
2022-10-22T21:50:44.263Z,100212.56
2022-10-22T21:54:08.142Z,100183.59
2022-10-22T21:57:31.831Z,100200.59
2022-10-22T22:01:01.905Z,100202.31
2022-10-22T22:04:24.960Z,100179.28
2022-10-22T22:07:48.913Z,100194.63
2022-10-22T22:11:14.210Z,100190.31
2022-10-22T22:14:38.603Z,100181.72
2022-10-22T22:18:03.960Z,100179.13
2022-10-22T22:21:27.899Z,100173.94
2022-10-22T22:24:51.159Z,100179.91
2022-10-22T22:28:13.818Z,100175.63
2022-10-22T22:31:37.800Z,100178.13
2022-10-22T22:35:02.809Z,100172.13
2022-10-22T22:38:26.967Z,100170.31
2022-10-22T22:41:51.085Z,100164.22
2022-10-22T22:45:14.590Z,100154.78
2022-10-22T22:48:38.123Z,100160.63
2022-10-22T22:52:03.549Z,100156.25
2022-10-22T22:55:27.421Z,100151.81
2022-10-22T22:58:51.713Z,100144.00
2022-10-22T23:02:15.289Z,100139.69
2022-10-22T23:05:39.475Z,100132.75
2022-10-22T23:09:06.843Z,100143.03
2022-10-22T23:12:31.847Z,100150.75
2022-10-22T23:15:55.937Z,100146.44
2022-10-22T23:19:21.961Z,100144.84
2022-10-22T23:22:45.076Z,100145.59
2022-10-22T23:26:13.308Z,100137.94
2022-10-22T23:29:38.107Z,100135.34
2022-10-22T23:33:00.976Z,100139.63
2022-10-22T23:36:24.332Z,100148.19
2022-10-22T23:39:47.499Z,100123.41
2022-10-22T23:43:15.205Z,100128.56
2022-10-22T23:46:40.172Z,100141.28
2022-10-22T23:50:03.340Z,100139.47
2022-10-22T23:53:26.501Z,100136.75
2022-10-22T23:56:50.592Z,100116.28
